Time;durP1;ratioP1;P1;durP2;ratioP2;P2;SDS_P1;SDS_P2;PMS_P1;PMS_P2;Temp;Humidity;BMP_temperature;BMP_pressure;BME280_temperature;BME280_humidity;BME280_pressure;Samples;Min_cycle;Max_cycle;Signal;HPM_P1;HPM_P2
2022/10/18 00:00:47;;;;;;;11.00;6.63;;;16.00;99.90;;;;;;5074029;28;20451;-56
2022/10/18 00:03:14;;;;;;;11.53;6.80;;;16.00;99.90;;;;;;5074602;28;20468;-56
2022/10/18 00:05:41;;;;;;;6.13;5.50;;;15.90;99.90;;;;;;5072730;28;20487;-56
2022/10/18 00:08:10;;;;;;;6.67;6.07;;;16.00;99.90;;;;;;5074242;28;20451;-56
2022/10/18 00:10:37;;;;;;;7.03;6.30;;;16.10;99.90;;;;;;5074639;28;20455;-56
2022/10/18 00:13:04;;;;;;;9.30;6.63;;;16.00;99.90;;;;;;5072172;28;20473;-56
2022/10/18 00:15:31;;;;;;;9.50;6.33;;;15.90;99.90;;;;;;5073983;28;20440;-56
2022/10/18 00:17:59;;;;;;;6.77;6.00;;;15.80;99.90;;;;;;5074813;28;20514;-56
2022/10/18 00:20:26;;;;;;;10.70;6.83;;;15.70;99.90;;;;;;5071743;28;20857;-56
2022/10/18 00:22:54;;;;;;;12.50;6.47;;;15.70;99.90;;;;;;5073998;28;21058;-56
2022/10/18 00:25:22;;;;;;;8.40;6.27;;;15.70;99.90;;;;;;5074259;28;20486;-56
2022/10/18 00:27:49;;;;;;;12.10;6.17;;;15.80;99.90;;;;;;5071639;28;21363;-56
2022/10/18 00:30:17;;;;;;;9.33;6.73;;;15.80;99.90;;;;;;5073971;28;20480;-56
2022/10/18 00:32:45;;;;;;;11.43;6.77;;;;;;;;;;5074251;28;20983;-56
2022/10/18 00:35:12;;;;;;;8.17;6.40;;;15.70;99.90;;;;;;5071587;28;20440;-56
2022/10/18 00:37:40;;;;;;;7.70;6.00;;;15.80;99.90;;;;;;5073392;28;20535;-56
2022/10/18 00:40:08;;;;;;;7.10;5.90;;;15.80;99.90;;;;;;5074301;28;20445;-56
2022/10/18 00:42:38;;;;;;;8.50;5.43;;;15.80;99.90;;;;;;5071389;28;20471;-56
2022/10/18 00:45:20;;;;;;;11.00;6.40;;;16.00;99.90;;;;;;5073948;28;21004;-56
2022/10/18 00:47:53;;;;;;;7.93;5.87;;;16.10;99.90;;;;;;5073930;28;20464;-56
2022/10/18 00:50:22;;;;;;;9.10;5.60;;;16.30;99.90;;;;;;5071804;28;20511;-56
2022/10/18 00:52:52;;;;;;;6.87;4.60;;;16.50;99.90;;;;;;5073891;28;20471;-56
2022/10/18 00:55:19;;;;;;;5.67;5.07;;;16.80;99.90;;;;;;5073411;28;20798;-56
2022/10/18 00:57:48;;;;;;;8.30;5.93;;;17.10;99.90;;;;;;5070335;28;20960;-56
2022/10/18 01:00:19;;;;;;;7.10;5.07;;;17.10;99.90;;;;;;5074067;28;20440;-56
2022/10/18 01:02:47;;;;;;;10.40;5.50;;;17.20;99.90;;;;;;5072715;28;20560;-56
2022/10/18 01:05:16;;;;;;;8.27;5.90;;;17.20;99.90;;;;;;5070705;28;20587;-56
2022/10/18 01:08:07;;;;;;;7.53;4.77;;;17.10;99.90;;;;;;5073248;28;20527;-56
2022/10/18 01:10:42;;;;;;;6.70;5.10;;;16.90;99.90;;;;;;5070830;28;20519;-56
2022/10/18 01:13:25;;;;;;;5.83;4.80;;;16.80;99.90;;;;;;5073069;28;20889;-56
2022/10/18 01:15:59;;;;;;;7.33;5.23;;;16.70;99.90;;;;;;5072581;28;20870;-56
2022/10/18 01:18:32;;;;;;;8.97;5.27;;;16.70;99.90;;;;;;5071050;28;20962;-56
2022/10/18 01:21:13;;;;;;;12.47;5.63;;;16.80;99.90;;;;;;5072525;28;20922;-56
2022/10/18 01:24:11;;;;;;;9.30;5.53;;;16.80;99.90;;;;;;5069656;28;20870;-56
2022/10/18 01:27:01;;;;;;;5.97;5.37;;;16.90;99.90;;;;;;5073060;28;20519;-56
2022/10/18 01:29:40;;;;;;;7.60;5.23;;;16.90;99.90;;;;;;5072860;28;20432;-56
2022/10/18 01:32:12;;;;;;;6.87;5.40;;;16.90;99.90;;;;;;5070046;28;20475;-56
2022/10/18 01:34:41;;;;;;;5.77;4.30;;;17.00;99.90;;;;;;5072915;28;20412;-56
2022/10/18 01:37:14;;;;;;;5.27;4.77;;;17.00;99.90;;;;;;5072359;28;20459;-56
2022/10/18 01:39:45;;;;;;;9.47;5.30;;;17.00;99.90;;;;;;5070408;28;20429;-56
2022/10/18 01:42:14;;;;;;;6.40;4.40;;;17.00;99.90;;;;;;5072512;28;20482;-56
2022/10/18 01:44:42;;;;;;;8.87;5.27;;;17.00;99.90;;;;;;5071474;28;21029;-56
2022/10/18 01:47:13;;;;;;;5.00;4.50;;;17.00;99.90;;;;;;5070582;28;20458;-56
2022/10/18 01:49:41;;;;;;;6.43;4.07;;;17.10;99.90;;;;;;5072505;28;20825;-56
2022/10/18 01:52:12;;;;;;;5.63;3.87;;;17.10;99.90;;;;;;5071447;28;20553;-56
2022/10/18 01:54:47;;;;;;;6.10;4.07;;;17.20;99.90;;;;;;5069343;28;20531;-56
2022/10/18 01:57:20;;;;;;;6.20;5.07;;;17.20;99.90;;;;;;5072329;28;20429;-56
2022/10/18 01:59:56;;;;;;;4.70;4.20;;;17.30;99.90;;;;;;5072532;28;20974;-56
2022/10/18 02:02:36;;;;;;;7.20;5.17;;;17.20;99.90;;;;;;5070026;28;20470;-56
2022/10/18 02:05:10;;;;;;;8.83;4.80;;;17.20;99.90;;;;;;5072390;28;20471;-56
2022/10/18 02:07:42;;;;;;;7.00;5.00;;;17.20;99.90;;;;;;5072886;28;20429;-56
2022/10/18 02:10:14;;;;;;;7.93;4.93;;;17.00;99.90;;;;;;5070995;28;20527;-56
2022/10/18 02:12:44;;;;;;;9.40;4.13;;;17.00;99.90;;;;;;5073008;28;20468;-56
2022/10/18 02:15:16;;;;;;;5.50;4.90;;;16.90;99.90;;;;;;5072815;28;20448;-56
2022/10/18 02:17:46;;;;;;;10.37;4.70;;;16.90;99.90;;;;;;5070274;28;20499;-56
2022/10/18 02:20:18;;;;;;;4.80;4.00;;;17.10;99.90;;;;;;5072012;28;20448;-56
2022/10/18 02:22:47;;;;;;;6.70;3.90;;;17.30;99.90;;;;;;5071343;28;20464;-56
2022/10/18 02:25:18;;;;;;;5.43;4.00;;;17.40;99.90;;;;;;5071248;28;20488;-56
2022/10/18 02:27:46;;;;;;;4.77;3.97;;;17.40;99.90;;;;;;5071903;28;20520;-56
2022/10/18 02:30:14;;;;;;;6.07;5.47;;;17.40;99.90;;;;;;5070518;28;20541;-56
2022/10/18 02:32:44;;;;;;;6.63;4.30;;;17.30;99.90;;;;;;5071229;28;20469;-56
2022/10/18 02:35:19;;;;;;;5.10;3.87;;;17.10;99.90;;;;;;5071902;28;20424;-56
2022/10/18 02:37:48;;;;;;;6.57;4.27;;;17.20;99.90;;;;;;5069044;28;20424;-56
2022/10/18 02:40:16;;;;;;;5.70;4.27;;;17.10;99.90;;;;;;5071273;28;20460;-56
2022/10/18 02:42:46;;;;;;;8.30;4.30;;;17.10;99.90;;;;;;5071636;28;20998;-56
2022/10/18 02:45:14;;;;;;;6.47;4.90;;;16.90;99.90;;;;;;5069256;28;21021;-56
2022/10/18 02:47:41;;;;;;;6.63;4.53;;;16.80;99.90;;;;;;5072685;28;20466;-56
2022/10/18 02:50:09;;;;;;;6.53;4.07;;;16.90;99.90;;;;;;5072083;28;20471;-56
2022/10/18 02:52:38;;;;;;;6.00;4.43;;;16.90;99.90;;;;;;5070589;28;20475;-57
2022/10/18 02:55:06;;;;;;;6.20;5.00;;;16.90;99.90;;;;;;5072121;28;20535;-56
2022/10/18 02:57:33;;;;;;;9.73;5.00;;;16.90;99.90;;;;;;5072520;28;20450;-56
2022/10/18 03:00:00;;;;;;;8.83;4.10;;;16.80;99.90;;;;;;5069958;28;20452;-56
2022/10/18 03:02:28;;;;;;;6.90;5.50;;;16.80;99.90;;;;;;5072116;28;20471;-56
2022/10/18 03:04:55;;;;;;;5.00;4.60;;;16.90;99.90;;;;;;5072169;28;20479;-56
2022/10/18 03:07:22;;;;;;;9.70;4.10;;;16.80;99.90;;;;;;5069722;28;20456;-56
2022/10/18 03:09:51;;;;;;;5.80;4.40;;;16.80;99.90;;;;;;5072146;28;20449;-56
2022/10/18 03:12:18;;;;;;;9.10;4.20;;;16.90;99.90;;;;;;5072382;28;20548;-56
2022/10/18 03:14:45;;;;;;;4.93;4.50;;;17.00;99.90;;;;;;5069766;28;20471;-55
2022/10/18 03:17:13;;;;;;;6.67;4.53;;;17.20;99.90;;;;;;5072079;28;20923;-56
2022/10/18 03:19:40;;;;;;;12.07;4.00;;;17.30;99.90;;;;;;5072028;28;20448;-56
2022/10/18 03:22:07;;;;;;;5.83;4.93;;;17.30;99.90;;;;;;5068880;28;21060;-59
2022/10/18 03:24:34;;;;;;;4.40;3.70;;;17.30;99.90;;;;;;5071243;28;20923;-55
2022/10/18 03:27:03;;;;;;;5.70;3.97;;;17.40;99.90;;;;;;5071270;28;21068;-56
2022/10/18 03:29:30;;;;;;;5.83;4.13;;;17.90;99.90;;;;;;5071182;28;20452;-56
2022/10/18 03:31:57;;;;;;;5.53;4.20;;;17.80;99.90;;;;;;5075467;28;20475;-56
2022/10/18 03:34:24;;;;;;;13.03;3.97;;;17.70;99.90;;;;;;5074907;28;20961;-56
2022/10/18 03:36:51;;;;;;;11.70;5.10;;;17.60;99.90;;;;;;5072755;28;20456;-56
2022/10/18 03:39:18;;;;;;;6.80;3.93;;;17.60;99.90;;;;;;5074010;28;20957;-56
2022/10/18 03:41:45;;;;;;;4.20;3.80;;;17.60;99.90;;;;;;5075012;28;20449;-57
2022/10/18 03:44:14;;;;;;;7.80;4.53;;;17.50;99.90;;;;;;5072900;28;20447;-56
2022/10/18 03:46:41;;;;;;;4.93;4.43;;;17.50;99.90;;;;;;5075148;28;20996;-56
2022/10/18 03:49:08;;;;;;;5.00;3.77;;;17.50;99.90;;;;;;5072379;28;20486;-56
2022/10/18 03:51:36;;;;;;;8.57;4.17;;;17.40;99.90;;;;;;5072118;28;20533;-56
2022/10/18 03:54:03;;;;;;;5.90;4.57;;;17.50;99.90;;;;;;5073943;28;20569;-56
2022/10/18 03:56:31;;;;;;;5.73;4.30;;;17.40;99.90;;;;;;5074271;28;20444;-56
2022/10/18 03:59:03;;;;;;;7.53;4.30;;;17.40;99.90;;;;;;5073197;28;20448;-56
2022/10/18 04:01:32;;;;;;;5.93;4.50;;;17.30;99.90;;;;;;5074412;28;20521;-56
2022/10/18 04:03:59;;;;;;;4.50;3.80;;;17.30;99.90;;;;;;5074186;28;20746;-56
2022/10/18 04:06:26;;;;;;;5.20;4.00;;;17.20;99.90;;;;;;5072798;28;20990;-56
2022/10/18 04:08:55;;;;;;;9.83;4.20;;;17.10;99.90;;;;;;5074407;28;20774;-56
2022/10/18 04:11:22;;;;;;;6.20;4.07;;;17.00;99.90;;;;;;5073996;28;20441;-56
2022/10/18 04:13:51;;;;;;;6.13;4.17;;;16.90;99.90;;;;;;5072473;28;20564;-56
2022/10/18 04:16:18;;;;;;;11.40;4.73;;;16.90;99.90;;;;;;5074017;28;20452;-56
2022/10/18 04:18:47;;;;;;;3.90;3.50;;;16.80;99.90;;;;;;5073984;28;20428;-56
2022/10/18 04:21:14;;;;;;;5.27;4.20;;;16.80;99.90;;;;;;5072282;28;20453;-57
2022/10/18 04:23:41;;;;;;;6.30;5.00;;;16.80;99.90;;;;;;5074139;28;20583;-56
2022/10/18 04:26:09;;;;;;;6.13;4.90;;;16.80;99.90;;;;;;5073370;28;20559;-56
2022/10/18 04:28:39;;;;;;;7.97;4.47;;;16.80;99.90;;;;;;5072662;28;20458;-56
2022/10/18 04:31:06;;;;;;;5.43;4.00;;;16.90;99.90;;;;;;5073918;28;20455;-56
2022/10/18 04:33:33;;;;;;;4.50;4.10;;;16.90;99.90;;;;;;5073123;28;20452;-56
2022/10/18 04:36:03;;;;;;;4.90;4.47;;;16.90;99.90;;;;;;5071992;28;20476;-56
2022/10/18 04:38:31;;;;;;;6.33;4.23;;;16.80;99.90;;;;;;5073822;28;20825;-56
2022/10/18 04:40:58;;;;;;;4.93;4.43;;;16.80;99.90;;;;;;5071517;28;20792;-56
2022/10/18 04:43:25;;;;;;;6.43;4.17;;;16.80;99.90;;;;;;5071942;28;20468;-56
2022/10/18 04:45:52;;;;;;;4.97;4.40;;;16.80;99.90;;;;;;5073715;28;20488;-56
2022/10/18 04:48:20;;;;;;;4.90;4.20;;;16.70;99.90;;;;;;5073068;28;21004;-56
2022/10/18 04:50:49;;;;;;;6.40;4.17;;;16.70;99.90;;;;;;5072178;28;20900;-56
2022/10/18 04:53:18;;;;;;;9.80;5.87;;;16.90;99.90;;;;;;5073059;28;20468;-56
2022/10/18 04:55:46;;;;;;;5.23;4.20;;;17.30;99.90;;;;;;5073290;28;20437;-57
2022/10/18 04:58:13;;;;;;;5.67;4.03;;;17.60;99.90;;;;;;5071299;28;20543;-56
2022/10/18 05:00:40;;;;;;;7.97;4.27;;;17.70;99.90;;;;;;5073056;28;20484;-56
2022/10/18 05:03:11;;;;;;;4.93;3.80;;;18.20;99.90;;;;;;5072775;28;20465;-56
2022/10/18 05:05:41;;;;;;;5.23;3.50;;;18.40;99.90;;;;;;5071065;28;20480;-57
2022/10/18 05:08:08;;;;;;;7.63;4.40;;;18.90;99.90;;;;;;5072810;28;20471;-56
2022/10/18 05:10:37;;;;;;;5.63;4.57;;;19.20;99.90;;;;;;5072659;28;20836;-57
2022/10/18 05:13:04;;;;;;;4.33;3.93;;;19.30;99.90;;;;;;5070454;28;20993;-56
2022/10/18 05:15:31;;;;;;;3.97;3.57;;;19.40;99.90;;;;;;5072244;28;20523;-57
2022/10/18 05:17:58;;;;;;;5.20;4.47;;;19.40;99.90;;;;;;5072971;28;20456;-56
2022/10/18 05:20:25;;;;;;;7.70;3.90;;;19.40;99.90;;;;;;5070947;28;20448;-56
2022/10/18 05:22:53;;;;;;;6.90;4.07;;;19.30;99.90;;;;;;5072622;28;20477;-56
2022/10/18 05:25:20;;;;;;;5.23;4.73;;;19.20;99.90;;;;;;5072452;28;20444;-56
2022/10/18 05:27:50;;;;;;;4.37;3.57;;;19.40;99.90;;;;;;5071546;28;20448;-56
2022/10/18 05:30:17;;;;;;;4.43;3.87;;;19.40;99.90;;;;;;5071672;28;20511;-56
2022/10/18 05:32:44;;;;;;;7.23;3.47;;;19.40;99.90;;;;;;5072555;28;20468;-56
2022/10/18 05:35:12;;;;;;;4.97;3.87;;;19.40;99.90;;;;;;5071512;28;20453;-56
2022/10/18 05:37:39;;;;;;;4.70;4.07;;;19.20;99.90;;;;;;5071774;28;20545;-57
2022/10/18 05:40:08;;;;;;;7.60;4.83;;;19.00;99.90;;;;;;5071437;28;20455;-56
2022/10/18 05:42:36;;;;;;;6.00;4.50;;;18.70;99.90;;;;;;5071071;28;20472;-55
2022/10/18 05:45:05;;;;;;;4.70;4.30;;;18.50;99.90;;;;;;5071132;28;20445;-56
2022/10/18 05:47:32;;;;;;;8.70;4.60;;;18.50;99.90;;;;;;5072219;28;21104;-56
2022/10/18 05:50:00;;;;;;;7.47;5.20;;;18.40;99.90;;;;;;5070805;28;20456;-56
2022/10/18 05:52:27;;;;;;;5.83;4.17;;;18.20;99.90;;;;;;5071226;28;20511;-57
2022/10/18 05:54:54;;;;;;;5.37;4.27;;;18.10;99.90;;;;;;5071532;28;20455;-57
2022/10/18 05:57:21;;;;;;;9.60;4.90;;;18.00;99.90;;;;;;5071141;28;20609;-57
2022/10/18 05:59:48;;;;;;;5.37;4.17;;;17.90;99.90;;;;;;5071070;28;20449;-57
2022/10/18 06:02:17;;;;;;;4.70;4.10;;;17.90;99.90;;;;;;5072170;28;20461;-57
2022/10/18 06:04:45;;;;;;;6.47;4.40;;;17.70;99.90;;;;;;5071148;28;20931;-57
2022/10/18 06:07:12;;;;;;;5.57;5.00;;;17.60;99.90;;;;;;5070641;28;20537;-57
2022/10/18 06:09:40;;;;;;;5.37;4.10;;;17.60;99.90;;;;;;5072103;28;20448;-57
2022/10/18 06:12:07;;;;;;;5.30;4.60;;;17.60;99.90;;;;;;5071138;28;20562;-57
2022/10/18 06:14:35;;;;;;;6.17;4.20;;;17.70;99.90;;;;;;5070247;28;20486;-57
2022/10/18 06:17:02;;;;;;;9.20;4.13;;;17.80;99.90;;;;;;5071459;28;20570;-57
2022/10/18 06:19:31;;;;;;;5.93;4.90;;;17.90;99.90;;;;;;5071678;28;20498;-58
2022/10/18 06:21:58;;;;;;;7.23;4.23;;;18.10;99.90;;;;;;5070510;28;20460;-57
2022/10/18 06:24:26;;;;;;;3.80;3.40;;;18.40;99.90;;;;;;5070003;28;20463;-57
2022/10/18 06:26:53;;;;;;;4.70;4.30;;;18.70;99.90;;;;;;5070278;28;20487;-57
2022/10/18 06:29:20;;;;;;;7.53;4.23;;;18.80;99.90;;;;;;5069544;28;20452;-57
2022/10/18 06:31:47;;;;;;;5.97;4.00;;;18.80;99.90;;;;;;5071690;28;21062;-57
2022/10/18 06:34:15;;;;;;;4.77;4.37;;;19.10;99.90;;;;;;5071264;28;20448;-57
2022/10/18 06:36:43;;;;;;;5.40;4.50;;;19.30;99.90;;;;;;5069577;28;20450;-57
2022/10/18 06:39:11;;;;;;;6.00;3.93;;;19.20;99.90;;;;;;5071124;28;20535;-57
2022/10/18 06:41:38;;;;;;;5.67;3.53;;;19.30;99.90;;;;;;5070367;28;20884;-57
2022/10/18 06:44:13;;;;;;;4.67;3.87;;;19.60;99.90;;;;;;5069033;28;20452;-57
2022/10/18 06:46:40;;;;;;;6.23;4.50;;;19.70;99.90;;;;;;5070593;28;21013;-61
2022/10/18 06:49:08;;;;;;;6.87;3.57;;;19.80;99.90;;;;;;5070982;28;20549;-57
2022/10/18 06:51:35;;;;;;;6.70;4.53;;;19.90;99.90;;;;;;5070208;28;20444;-57
2022/10/18 06:54:04;;;;;;;3.93;3.53;;;19.80;99.90;;;;;;5071189;28;20565;-57
2022/10/18 06:56:32;;;;;;;5.83;3.70;;;20.00;99.90;;;;;;5070752;28;20444;-57
2022/10/18 06:58:59;;;;;;;6.33;4.23;;;20.00;99.90;;;;;;5070131;28;20444;-59
2022/10/18 07:01:27;;;;;;;4.00;3.60;;;19.90;99.90;;;;;;5071098;28;20535;-57
2022/10/18 07:03:56;;;;;;;5.50;4.70;;;20.00;99.90;;;;;;5072866;28;20927;-57
2022/10/18 07:06:24;;;;;;;6.97;3.80;;;20.10;99.90;;;;;;5073841;28;20484;-57
2022/10/18 07:08:53;;;;;;;5.93;3.50;;;20.00;99.90;;;;;;5074935;28;20592;-55
2022/10/18 07:11:27;;;;;;;4.30;3.87;;;19.90;99.90;;;;;;5075155;28;20452;-55
2022/10/18 07:13:59;;;;;;;5.70;4.00;;;19.90;99.90;;;;;;5075223;28;20425;-56
2022/10/18 07:16:26;;;;;;;6.13;3.83;;;20.00;99.90;;;;;;5074799;28;20452;-56
2022/10/18 07:18:53;;;;;;;3.87;3.47;;;19.90;99.90;;;;;;5073264;28;20440;-57
2022/10/18 07:21:23;;;;;;;4.33;3.80;;;19.90;99.90;;;;;;5074282;28;20436;-56
2022/10/18 07:23:51;;;;;;;4.73;4.03;;;20.20;99.90;;;;;;5074405;28;20474;-56
2022/10/18 07:26:21;;;;;;;8.50;4.57;;;20.10;99.90;;;;;;5072509;28;20490;-57
2022/10/18 07:28:53;;;;;;;4.77;3.40;;;19.90;99.90;;;;;;5074132;28;20425;-57
2022/10/18 07:31:20;;;;;;;4.83;3.80;;;20.00;99.90;;;;;;5074380;28;20520;-56
2022/10/18 07:33:48;;;;;;;4.73;3.60;;;20.20;99.90;;;;;;5072438;28;20563;-57
2022/10/18 07:36:15;;;;;;;12.67;3.90;;;20.00;99.90;;;;;;5074840;28;20448;-57
2022/10/18 07:38:43;;;;;;;4.23;3.53;;;20.00;99.90;;;;;;5073865;28;20949;-57
2022/10/18 07:41:14;;;;;;;4.47;4.00;;;20.10;99.90;;;;;;5071202;28;20452;-56
2022/10/18 07:43:44;;;;;;;8.00;4.13;;;20.20;99.90;;;;;;5073645;28;21058;-57
2022/10/18 07:46:12;;;;;;;6.13;4.27;;;20.20;99.90;;;;;;5073632;28;20518;-57
2022/10/18 07:48:40;;;;;;;4.93;3.77;;;20.20;99.90;;;;;;5072241;28;20574;-56
2022/10/18 07:51:07;;;;;;;4.57;3.77;;;20.50;99.90;;;;;;5074494;28;20440;-56
2022/10/18 07:53:35;;;;;;;9.60;4.97;;;20.50;99.90;;;;;;5073870;28;20547;-56
2022/10/18 07:56:04;;;;;;;6.27;4.40;;;20.40;99.90;;;;;;5071219;28;20962;-56
2022/10/18 07:58:32;;;;;;;4.40;3.93;;;20.40;99.90;;;;;;5073798;28;20476;-56
2022/10/18 08:01:04;;;;;;;9.80;4.33;;;20.50;99.90;;;;;;5074017;28;20498;-57
2022/10/18 08:03:31;;;;;;;4.50;4.07;;;20.50;99.90;;;;;;5071645;28;21005;-57
2022/10/18 08:05:58;;;;;;;5.30;4.20;;;20.60;99.90;;;;;;5073611;28;20494;-57
2022/10/18 08:08:25;;;;;;;6.90;4.10;;;20.60;99.90;;;;;;5073923;28;20515;-57
2022/10/18 08:10:53;;;;;;;6.87;4.30;;;20.50;99.90;;;;;;5071987;28;20453;-57
2022/10/18 08:13:20;;;;;;;3.90;3.60;;;20.50;99.90;;;;;;5073788;28;20472;-57
2022/10/18 08:15:47;;;;;;;3.60;3.30;;;20.70;99.90;;;;;;5073612;28;20882;-57
2022/10/18 08:18:16;;;;;;;5.77;3.90;;;20.80;99.90;;;;;;5071629;28;20804;-57
2022/10/18 08:20:44;;;;;;;6.60;3.83;;;20.80;99.90;;;;;;5073493;28;20995;-57
2022/10/18 08:23:11;;;;;;;7.60;4.67;;;20.70;99.90;;;;;;5073565;28;21017;-57
2022/10/18 08:25:38;;;;;;;5.07;3.93;;;20.60;99.90;;;;;;5071797;28;20801;-57
2022/10/18 08:28:06;;;;;;;4.53;4.13;;;20.60;99.90;;;;;;5073798;28;20491;-57
2022/10/18 08:30:35;;;;;;;7.10;4.80;;;20.60;99.90;;;;;;5073713;28;20455;-57
2022/10/18 08:33:02;;;;;;;5.03;4.00;;;20.60;99.90;;;;;;5071255;28;20475;-57
2022/10/18 08:35:31;;;;;;;7.50;4.00;;;20.40;99.90;;;;;;5073252;28;20916;-57
2022/10/18 08:37:59;;;;;;;6.27;4.20;;;20.40;99.90;;;;;;5073430;28;20444;-57
2022/10/18 08:40:27;;;;;;;4.30;3.90;;;20.40;99.90;;;;;;5070461;28;20445;-57
2022/10/18 08:43:03;;;;;;;3.80;3.50;;;20.50;99.90;;;;;;5073357;28;20547;-57
2022/10/18 08:45:34;;;;;;;4.00;3.67;;;20.60;99.90;;;;;;5072940;28;20523;-57
2022/10/18 08:48:04;;;;;;;8.23;4.40;;;20.60;99.90;;;;;;5071182;28;20490;-57
2022/10/18 08:50:35;;;;;;;4.27;3.87;;;20.70;99.90;;;;;;5072870;28;20492;-56
2022/10/18 08:53:14;;;;;;;3.93;3.50;;;20.70;99.90;;;;;;5072589;28;20471;-58
2022/10/18 08:55:46;;;;;;;5.63;4.20;;;20.90;99.90;;;;;;5071367;28;21331;-58
2022/10/18 08:58:18;;;;;;;5.30;4.33;;;21.00;99.90;;;;;;5074003;28;20833;-57
2022/10/18 09:00:56;;;;;;;12.33;4.97;;;21.20;99.90;;;;;;5073685;28;20424;-57
2022/10/18 09:03:34;;;;;;;12.40;3.97;;;21.10;99.90;;;;;;5072067;28;20459;-57
2022/10/18 09:06:11;;;;;;;5.20;4.70;;;21.00;99.90;;;;;;5073519;28;20531;-58
2022/10/18 09:08:53;;;;;;;7.10;3.70;;;21.00;99.90;;;;;;5073760;28;20463;-58
2022/10/18 09:11:36;;;;;;;5.67;5.03;;;21.10;99.90;;;;;;5071764;28;20512;-56
2022/10/18 09:14:41;;;;;;;5.23;3.70;;;21.20;99.90;;;;;;5073425;28;20904;-57
2022/10/18 09:17:21;;;;;;;4.07;3.67;;;21.40;99.90;;;;;;5050349;28;20768;-57
2022/10/18 09:20:02;;;;;;;4.97;4.07;;;21.70;99.90;;;;;;5073458;28;20412;-57
2022/10/18 09:22:47;;;;;;;7.93;3.83;;;21.70;99.90;;;;;;5073381;28;20544;-57
2022/10/18 09:25:19;;;;;;;7.67;4.43;;;21.60;99.90;;;;;;5071438;28;20453;-57
2022/10/18 09:27:54;;;;;;;4.43;4.03;;;21.70;99.90;;;;;;5072151;28;20452;-56
2022/10/18 09:30:39;;;;;;;11.50;5.80;;;22.00;99.90;;;;;;5072937;28;20434;-56
2022/10/18 09:33:28;;;;;;;6.30;4.37;;;22.10;99.90;;;;;;5070930;28;20479;-56
2022/10/18 09:35:58;;;;;;;4.43;4.03;;;22.40;99.90;;;;;;5072771;28;20437;-57
2022/10/18 09:38:31;;;;;;;6.33;4.13;;;22.60;99.90;;;;;;5073328;28;20439;-57
2022/10/18 09:41:02;;;;;;;7.17;4.07;;;22.80;99.90;;;;;;5071864;28;20436;-56
2022/10/18 09:43:45;;;;;;;7.83;4.43;;;22.80;99.90;;;;;;5072974;28;20551;-56
2022/10/18 09:46:15;;;;;;;7.00;3.70;;;22.60;99.90;;;;;;5072755;28;20432;-57
2022/10/18 09:48:46;;;;;;;7.80;4.17;;;22.30;99.90;;;;;;5070359;28;20504;-57
2022/10/18 09:51:20;;;;;;;4.83;4.00;;;22.10;99.90;;;;;;5073485;28;20448;-57
2022/10/18 09:54:03;;;;;;;4.70;3.93;;;22.00;99.90;;;;;;5072676;28;20511;-57
2022/10/18 09:56:33;;;;;;;7.90;4.70;;;22.20;99.90;;;;;;5069911;28;20444;-57
2022/10/18 09:59:00;;;;;;;6.37;4.10;;;22.00;99.90;;;;;;5072633;28;20426;-58
2022/10/18 10:01:32;;;;;;;3.83;3.53;;;21.80;99.90;;;;;;5072289;28;20994;-57
2022/10/18 10:03:59;;;;;;;5.03;4.53;;;21.90;99.90;;;;;;5071088;28;20988;-57
2022/10/18 10:06:28;;;;;;;4.70;4.30;;;22.20;99.90;;;;;;5072922;28;20539;-57
2022/10/18 10:09:00;;;;;;;5.47;4.77;;;22.10;99.90;;;;;;5072165;28;20472;-57
2022/10/18 10:11:33;;;;;;;6.30;4.27;;;22.20;99.90;;;;;;5072435;28;20429;-57
2022/10/18 10:14:13;;;;;;;4.93;4.10;;;22.10;99.90;;;;;;5072847;28;20451;-57
2022/10/18 10:16:46;;;;;;;5.10;4.60;;;22.00;99.90;;;;;;5070281;28;20456;-57
2022/10/18 10:19:20;;;;;;;6.40;5.03;;;22.00;99.90;;;;;;5072306;28;20915;-57
2022/10/18 10:21:48;;;;;;;4.90;4.00;;;22.00;99.90;;;;;;5072559;28;20468;-57
2022/10/18 10:24:25;;;;;;;7.13;4.43;;;23.70;99.90;;;;;;5070184;28;20431;-57
2022/10/18 10:27:00;;;;;;;6.70;4.60;;;24.00;99.90;;;;;;5072470;28;20436;-57
2022/10/18 10:29:56;;;;;;;9.87;4.50;;;25.30;99.90;;;;;;5072398;28;20425;-57
2022/10/18 10:32:27;;;;;;;6.93;4.40;;;25.70;99.90;;;;;;5070144;28;20982;-57
2022/10/18 10:34:54;;;;;;;7.17;4.10;;;26.40;99.90;;;;;;5072597;28;20787;-58
2022/10/18 10:37:27;;;;;;;7.10;4.57;;;26.40;99.90;;;;;;5071744;28;20441;-57
2022/10/18 10:40:20;;;;;;;6.97;4.43;;;26.60;99.90;;;;;;5070000;28;20917;-58
2022/10/18 10:43:06;;;;;;;8.00;4.00;;;26.60;99.90;;;;;;5071958;28;21008;-57
2022/10/18 10:45:37;;;;;;;7.73;4.30;;;26.10;99.90;;;;;;5072181;28;20464;-57
2022/10/18 10:48:14;;;;;;;7.53;4.10;;;26.10;99.90;;;;;;5070151;28;21016;-57
2022/10/18 10:50:51;;;;;;;5.40;3.43;;;26.60;99.90;;;;;;5072039;28;20429;-57
2022/10/18 10:53:30;;;;;;;9.40;4.83;;;26.70;99.90;;;;;;5072057;28;20447;-57
2022/10/18 10:56:00;;;;;;;7.67;4.50;;;26.70;99.90;;;;;;5072178;28;20614;-57
2022/10/18 10:58:33;;;;;;;9.37;4.43;;;26.30;99.90;;;;;;5070682;28;20863;-57
2022/10/18 11:01:21;;;;;;;9.53;4.50;;;25.60;99.90;;;;;;5071105;28;20427;-57
2022/10/18 11:03:50;;;;;;;5.80;5.20;;;25.50;99.90;;;;;;5070931;28;20468;-57
2022/10/18 11:06:45;;;;;;;7.60;5.90;;;25.10;99.90;;;;;;5070838;28;20444;-56
2022/10/18 11:09:24;;;;;;;5.10;4.00;;;24.70;99.90;;;;;;5055095;28;20609;-57
2022/10/18 11:12:02;;;;;;;8.37;4.30;;;24.20;99.90;;;;;;5070883;28;20593;-57
2022/10/18 11:14:36;;;;;;;14.47;4.50;;;24.00;99.90;;;;;;5071076;28;20705;-57
2022/10/18 11:17:12;;;;;;;5.17;4.30;;;24.10;99.90;;;;;;5069477;28;20975;-58
2022/10/18 11:19:55;;;;;;;4.80;4.40;;;24.00;99.90;;;;;;5070904;28;20432;-57
2022/10/18 11:22:25;;;;;;;13.20;5.30;;;24.70;99.90;;;;;;5071319;28;20555;-56
2022/10/18 11:24:52;;;;;;;5.77;4.67;;;25.00;99.90;;;;;;5068876;28;20433;-58
2022/10/18 11:27:28;;;;;;;6.83;4.77;;;25.00;99.90;;;;;;5070323;28;20451;-57
2022/10/18 11:30:14;;;;;;;9.40;5.40;;;25.60;99.90;;;;;;5069446;28;20447;-56
2022/10/18 11:32:49;;;;;;;6.10;4.40;;;25.30;99.90;;;;;;5068913;28;20495;-57
2022/10/18 11:35:29;;;;;;;4.53;4.00;;;24.50;99.90;;;;;;5070725;28;20463;-56
2022/10/18 11:38:12;;;;;;;6.27;5.07;;;23.90;99.90;;;;;;5069342;28;20443;-56
2022/10/18 11:40:55;;;;;;;7.30;4.73;;;23.90;99.90;;;;;;5070377;28;20914;-56
2022/10/18 11:43:34;;;;;;;8.13;4.67;;;24.80;99.90;;;;;;5070211;28;20831;-58
2022/10/18 11:46:10;;;;;;;9.40;4.90;;;24.50;99.90;;;;;;5068499;28;20428;-56
2022/10/18 11:48:54;;;;;;;6.77;5.20;;;24.10;99.90;;;;;;5070198;28;20871;-57
2022/10/18 11:51:27;;;;;;;8.27;5.30;;;24.00;99.90;;;;;;5073626;28;20461;-57
2022/10/18 11:54:16;;;;;;;7.67;4.90;;;23.80;99.90;;;;;;5072529;28;20433;-57
2022/10/18 11:56:50;;;;;;;7.63;4.53;;;23.60;99.90;;;;;;5073212;28;20895;-58
2022/10/18 11:59:33;;;;;;;6.47;5.53;;;23.60;99.90;;;;;;5074049;28;20425;-57
2022/10/18 12:02:16;;;;;;;8.03;5.50;;;23.50;99.90;;;;;;5071643;28;20475;-57
2022/10/18 12:04:49;;;;;;;8.93;3.83;;;23.30;99.90;;;;;;5073630;28;20961;-57
2022/10/18 12:07:18;;;;;;;6.83;4.73;;;23.20;99.90;;;;;;5073181;28;20523;-57
2022/10/18 12:09:49;;;;;;;7.30;3.93;;;23.30;99.90;;;;;;5071793;28;20476;-57
2022/10/18 12:12:20;;;;;;;6.13;3.80;;;23.30;99.90;;;;;;5073644;28;20468;-57
2022/10/18 12:14:52;;;;;;;7.37;3.77;;;23.30;99.90;;;;;;5072539;28;20481;-57
2022/10/18 12:17:26;;;;;;;9.23;4.63;;;23.40;99.90;;;;;;5073431;28;20484;-57
2022/10/18 12:19:55;;;;;;;6.70;4.93;;;23.30;99.90;;;;;;5073534;28;20473;-57
2022/10/18 12:22:28;;;;;;;3.73;2.80;;;23.40;99.90;;;;;;5071186;28;20828;-57
2022/10/18 12:24:55;;;;;;;2.83;2.50;;;23.50;99.90;;;;;;5073892;28;20429;-57
2022/10/18 12:27:33;;;;;;;3.30;3.00;;;23.20;99.90;;;;;;5073785;28;20452;-57
2022/10/18 12:30:06;;;;;;;6.60;4.53;;;23.20;99.90;;;;;;5072112;28;20932;-57
2022/10/18 12:32:36;;;;;;;5.10;3.40;;;23.10;99.90;;;;;;5073628;28;20491;-57
2022/10/18 12:35:06;;;;;;;5.67;3.30;;;23.10;99.90;;;;;;5073332;28;20447;-57
2022/10/18 12:38:10;;;;;;;4.13;2.87;;;23.40;99.90;;;;;;5071197;28;20515;-57
2022/10/18 12:40:41;;;;;;;8.90;3.30;;;24.10;99.90;;;;;;5041561;28;20432;-57
2022/10/18 12:43:10;;;;;;;3.43;3.10;;;24.80;99.90;;;;;;5072855;28;20464;-57
2022/10/18 12:45:51;;;;;;;3.20;2.60;;;25.20;99.90;;;;;;5071613;28;20453;-56
2022/10/18 12:48:33;;;;;;;6.13;2.90;;;25.20;99.90;;;;;;5072982;28;20579;-56
2022/10/18 12:51:06;;;;;;;3.63;2.60;;;25.10;99.90;;;;;;5073191;28;20523;-57
2022/10/18 12:53:34;;;;;;;4.10;2.87;;;24.60;99.90;;;;;;5071108;28;20464;-56
2022/10/18 12:56:35;;;;;;;6.50;2.80;;;24.20;99.90;;;;;;5073643;28;20455;-57
2022/10/18 12:59:47;;;;;;;4.63;3.20;;;24.00;99.90;;;;;;5072884;28;20787;-56
2022/10/18 13:02:28;;;;;;;3.77;3.40;;;24.30;99.90;;;;;;5071250;28;20467;-57
2022/10/18 13:04:56;;;;;;;3.63;2.93;;;25.00;99.90;;;;;;5072342;28;20408;-57
2022/10/18 13:07:39;;;;;;;7.60;4.10;;;25.30;99.90;;;;;;5071035;28;20497;-57